Terminal Aerodrome Forecast
Issued by NWS

Home | Current Version | Previous Version | Graphics & Text | Print | Product List | Glossary On
Versions: 1 2 3 4 5 6 7 8 9 10 11 12 13 14
000
FTUS41 KCLE 302300
TAFFDY
TAF
KFDY 302327Z 3100/3124 22003KT P6SM SCT040 OVC100
     FM311400 28010KT 5SM -SHRA BR OVC020
     FM311700 31012KT P6SM VCSH OVC020
     FM312200 35015KT 5SM -SHRA BR BKN015 OVC020=

USA.gov is the U.S. government's official web portal to all federal, state and local government web resources and services.